sensor_id;sensor_type;location;lat;lon;timestamp;P1;durP1;ratioP1;P2;durP2;ratioP2
47920;SDS011;33686;48.770;9.186;2023-12-22T06:16:12;3.63;;;1.17;;
47920;SDS011;33686;48.770;9.186;2023-12-22T06:18:43;3.47;;;1.42;;
47920;SDS011;33686;48.770;9.186;2023-12-22T06:21:09;4.50;;;1.47;;
47920;SDS011;33686;48.770;9.186;2023-12-22T06:23:35;6.17;;;2.03;;
47920;SDS011;33686;48.770;9.186;2023-12-22T06:26:01;6.07;;;2.17;;
47920;SDS011;33686;48.770;9.186;2023-12-22T06:28:32;8.80;;;1.80;;
47920;SDS011;33686;48.770;9.186;2023-12-22T06:30:58;3.27;;;1.67;;
47920;SDS011;33686;48.770;9.186;2023-12-22T06:33:24;7.45;;;1.70;;
47920;SDS011;33686;48.770;9.186;2023-12-22T06:35:49;5.47;;;1.77;;
47920;SDS011;33686;48.770;9.186;2023-12-22T06:38:18;2.85;;;1.55;;
47920;SDS011;33686;48.770;9.186;2023-12-22T06:40:44;3.60;;;1.30;;
47920;SDS011;33686;48.770;9.186;2023-12-22T06:43:12;4.32;;;1.48;;
47920;SDS011;33686;48.770;9.186;2023-12-22T06:45:38;6.77;;;1.33;;
47920;SDS011;33686;48.770;9.186;2023-12-22T06:48:05;2.47;;;1.10;;
47920;SDS011;33686;48.770;9.186;2023-12-22T06:50:31;5.03;;;1.40;;
47920;SDS011;33686;48.770;9.186;2023-12-22T06:52:57;2.53;;;1.00;;
47920;SDS011;33686;48.770;9.186;2023-12-22T06:55:23;3.97;;;1.30;;
47920;SDS011;33686;48.770;9.186;2023-12-22T06:57:49;4.47;;;1.17;;
47920;SDS011;33686;48.770;9.186;2023-12-22T07:00:15;6.23;;;1.17;;
47920;SDS011;33686;48.770;9.186;2023-12-22T07:02:41;5.07;;;1.42;;
47920;SDS011;33686;48.770;9.186;2023-12-22T07:07:35;2.58;;;0.80;;
47920;SDS011;33686;48.770;9.186;2023-12-22T07:10:01;7.27;;;1.80;;
47920;SDS011;33686;48.770;9.186;2023-12-22T07:12:27;4.10;;;1.20;;
47920;SDS011;33686;48.770;9.186;2023-12-22T07:14:53;4.90;;;1.13;;
47920;SDS011;33686;48.770;9.186;2023-12-22T07:17:19;3.35;;;1.15;;
47920;SDS011;33686;48.770;9.186;2023-12-22T07:19:44;7.70;;;1.60;;
47920;SDS011;33686;48.770;9.186;2023-12-22T07:22:10;2.40;;;1.20;;
47920;SDS011;33686;48.770;9.186;2023-12-22T07:24:36;5.50;;;1.00;;
47920;SDS011;33686;48.770;9.186;2023-12-22T07:27:02;3.43;;;1.60;;
47920;SDS011;33686;48.770;9.186;2023-12-22T07:29:28;4.40;;;1.38;;
47920;SDS011;33686;48.770;9.186;2023-12-22T07:31:54;5.20;;;1.30;;
47920;SDS011;33686;48.770;9.186;2023-12-22T07:34:19;3.40;;;1.02;;
47920;SDS011;33686;48.770;9.186;2023-12-22T07:36:47;2.80;;;1.20;;
47920;SDS011;33686;48.770;9.186;2023-12-22T07:39:13;5.65;;;1.48;;
47920;SDS011;33686;48.770;9.186;2023-12-22T07:41:39;6.28;;;1.65;;
47920;SDS011;33686;48.770;9.186;2023-12-22T07:44:05;3.10;;;1.05;;
47920;SDS011;33686;48.770;9.186;2023-12-22T07:46:31;2.08;;;1.38;;
47920;SDS011;33686;48.770;9.186;2023-12-22T07:48:56;3.17;;;1.20;;
47920;SDS011;33686;48.770;9.186;2023-12-22T07:51:22;3.40;;;1.40;;
47920;SDS011;33686;48.770;9.186;2023-12-22T07:53:47;2.87;;;1.37;;
47920;SDS011;33686;48.770;9.186;2023-12-22T07:56:13;6.28;;;1.20;;
47920;SDS011;33686;48.770;9.186;2023-12-22T07:58:39;2.60;;;1.13;;
47920;SDS011;33686;48.770;9.186;2023-12-22T08:01:05;3.33;;;1.17;;
47920;SDS011;33686;48.770;9.186;2023-12-22T08:03:31;3.67;;;1.30;;
47920;SDS011;33686;48.770;9.186;2023-12-22T08:05:57;3.13;;;1.00;;
47920;SDS011;33686;48.770;9.186;2023-12-22T08:08:23;4.97;;;1.10;;
47920;SDS011;33686;48.770;9.186;2023-12-22T08:10:48;5.15;;;1.15;;
47920;SDS011;33686;48.770;9.186;2023-12-22T08:13:14;3.33;;;1.57;;
47920;SDS011;33686;48.770;9.186;2023-12-22T08:15:39;4.97;;;1.38;;
47920;SDS011;33686;48.770;9.186;2023-12-22T08:18:06;4.15;;;1.45;;
47920;SDS011;33686;48.770;9.186;2023-12-22T08:20:32;5.13;;;1.10;;
47920;SDS011;33686;48.770;9.186;2023-12-22T08:22:57;4.13;;;1.23;;
47920;SDS011;33686;48.770;9.186;2023-12-22T08:25:23;3.43;;;1.43;;
47920;SDS011;33686;48.770;9.186;2023-12-22T08:27:48;3.35;;;1.33;;
47920;SDS011;33686;48.770;9.186;2023-12-22T08:30:14;3.08;;;1.27;;
47920;SDS011;33686;48.770;9.186;2023-12-22T08:32:40;3.33;;;1.50;;
47920;SDS011;33686;48.770;9.186;2023-12-22T08:35:06;3.45;;;1.40;;
47920;SDS011;33686;48.770;9.186;2023-12-22T08:37:32;5.93;;;1.55;;
47920;SDS011;33686;48.770;9.186;2023-12-22T08:39:58;6.00;;;1.73;;
47920;SDS011;33686;48.770;9.186;2023-12-22T08:42:24;12.55;;;1.80;;
47920;SDS011;33686;48.770;9.186;2023-12-22T08:44:50;7.70;;;1.77;;
47920;SDS011;33686;48.770;9.186;2023-12-22T08:47:16;6.13;;;1.83;;
47920;SDS011;33686;48.770;9.186;2023-12-22T08:49:42;6.30;;;1.48;;
47920;SDS011;33686;48.770;9.186;2023-12-22T08:52:07;4.28;;;1.73;;
47920;SDS011;33686;48.770;9.186;2023-12-22T08:54:33;6.82;;;3.05;;
47920;SDS011;33686;48.770;9.186;2023-12-22T08:57:00;6.00;;;1.65;;
47920;SDS011;33686;48.770;9.186;2023-12-22T08:59:27;5.43;;;1.70;;
47920;SDS011;33686;48.770;9.186;2023-12-22T09:01:52;3.70;;;1.27;;
47920;SDS011;33686;48.770;9.186;2023-12-22T09:04:18;3.43;;;1.70;;
47920;SDS011;33686;48.770;9.186;2023-12-22T09:06:46;6.80;;;1.65;;
47920;SDS011;33686;48.770;9.186;2023-12-22T09:09:11;5.43;;;1.77;;
47920;SDS011;33686;48.770;9.186;2023-12-22T09:11:37;4.80;;;1.33;;
47920;SDS011;33686;48.770;9.186;2023-12-22T09:14:04;6.97;;;2.10;;
47920;SDS011;33686;48.770;9.186;2023-12-22T09:16:34;7.03;;;2.10;;
47920;SDS011;33686;48.770;9.186;2023-12-22T09:19:01;4.38;;;1.88;;
47920;SDS011;33686;48.770;9.186;2023-12-22T09:21:27;6.70;;;2.47;;
47920;SDS011;33686;48.770;9.186;2023-12-22T09:23:52;5.70;;;1.23;;
47920;SDS011;33686;48.770;9.186;2023-12-22T09:26:18;3.55;;;1.85;;
47920;SDS011;33686;48.770;9.186;2023-12-22T09:28:44;4.75;;;2.10;;
47920;SDS011;33686;48.770;9.186;2023-12-22T09:31:10;12.82;;;2.28;;
47920;SDS011;33686;48.770;9.186;2023-12-22T09:33:38;8.32;;;1.65;;
47920;SDS011;33686;48.770;9.186;2023-12-22T09:36:05;7.90;;;2.22;;
47920;SDS011;33686;48.770;9.186;2023-12-22T09:38:31;9.90;;;2.67;;
47920;SDS011;33686;48.770;9.186;2023-12-22T09:40:57;6.90;;;2.17;;
47920;SDS011;33686;48.770;9.186;2023-12-22T09:43:23;6.88;;;2.58;;
47920;SDS011;33686;48.770;9.186;2023-12-22T09:45:49;10.30;;;2.70;;
47920;SDS011;33686;48.770;9.186;2023-12-22T09:48:17;11.30;;;3.50;;
47920;SDS011;33686;48.770;9.186;2023-12-22T09:50:46;6.70;;;2.22;;
47920;SDS011;33686;48.770;9.186;2023-12-22T09:53:12;7.95;;;2.97;;
47920;SDS011;33686;48.770;9.186;2023-12-22T09:55:39;7.72;;;2.25;;
47920;SDS011;33686;48.770;9.186;2023-12-22T09:58:08;8.02;;;2.72;;
47920;SDS011;33686;48.770;9.186;2023-12-22T10:00:35;9.05;;;2.38;;
47920;SDS011;33686;48.770;9.186;2023-12-22T10:03:01;6.03;;;2.15;;
47920;SDS011;33686;48.770;9.186;2023-12-22T10:05:30;8.63;;;2.22;;
47920;SDS011;33686;48.770;9.186;2023-12-22T10:07:56;9.53;;;2.67;;
47920;SDS011;33686;48.770;9.186;2023-12-22T10:10:24;5.25;;;2.05;;
47920;SDS011;33686;48.770;9.186;2023-12-22T10:12:50;8.38;;;2.70;;
47920;SDS011;33686;48.770;9.186;2023-12-22T10:15:17;6.82;;;2.63;;
47920;SDS011;33686;48.770;9.186;2023-12-22T10:17:48;7.65;;;2.53;;
47920;SDS011;33686;48.770;9.186;2023-12-22T10:20:17;7.30;;;2.22;;
47920;SDS011;33686;48.770;9.186;2023-12-22T10:22:43;11.43;;;1.97;;
47920;SDS011;33686;48.770;9.186;2023-12-22T10:25:08;8.32;;;2.00;;
47920;SDS011;33686;48.770;9.186;2023-12-22T10:27:37;6.10;;;2.57;;
47920;SDS011;33686;48.770;9.186;2023-12-22T10:30:03;10.40;;;3.22;;
47920;SDS011;33686;48.770;9.186;2023-12-22T10:32:29;10.35;;;2.25;;
47920;SDS011;33686;48.770;9.186;2023-12-22T10:34:55;11.35;;;2.90;;
47920;SDS011;33686;48.770;9.186;2023-12-22T10:37:22;5.43;;;1.80;;
47920;SDS011;33686;48.770;9.186;2023-12-22T10:39:51;9.60;;;2.17;;
47920;SDS011;33686;48.770;9.186;2023-12-22T10:42:20;7.82;;;2.08;;
47920;SDS011;33686;48.770;9.186;2023-12-22T10:44:46;7.80;;;2.40;;
47920;SDS011;33686;48.770;9.186;2023-12-22T10:47:13;3.97;;;1.95;;
47920;SDS011;33686;48.770;9.186;2023-12-22T10:49:38;5.43;;;2.37;;
47920;SDS011;33686;48.770;9.186;2023-12-22T10:52:04;5.83;;;1.53;;
47920;SDS011;33686;48.770;9.186;2023-12-22T10:54:30;5.28;;;1.80;;
47920;SDS011;33686;48.770;9.186;2023-12-22T10:56:59;8.87;;;3.00;;
47920;SDS011;33686;48.770;9.186;2023-12-22T10:59:27;4.90;;;1.50;;
47920;SDS011;33686;48.770;9.186;2023-12-22T11:01:56;2.85;;;1.50;;
47920;SDS011;33686;48.770;9.186;2023-12-22T11:04:22;5.20;;;1.98;;
47920;SDS011;33686;48.770;9.186;2023-12-22T11:06:57;5.32;;;2.33;;
47920;SDS011;33686;48.770;9.186;2023-12-22T11:09:24;3.78;;;1.92;;
47920;SDS011;33686;48.770;9.186;2023-12-22T11:11:55;5.47;;;1.48;;
47920;SDS011;33686;48.770;9.186;2023-12-22T11:14:22;5.43;;;1.10;;
47920;SDS011;33686;48.770;9.186;2023-12-22T11:16:49;4.30;;;1.20;;
47920;SDS011;33686;48.770;9.186;2023-12-22T11:19:16;3.97;;;1.00;;
47920;SDS011;33686;48.770;9.186;2023-12-22T11:21:43;3.55;;;1.15;;
47920;SDS011;33686;48.770;9.186;2023-12-22T11:24:12;2.63;;;1.30;;
47920;SDS011;33686;48.770;9.186;2023-12-22T11:26:40;1.83;;;1.00;;
47920;SDS011;33686;48.770;9.186;2023-12-22T11:29:07;2.88;;;0.90;;
47920;SDS011;33686;48.770;9.186;2023-12-22T11:31:34;2.35;;;0.70;;
47920;SDS011;33686;48.770;9.186;2023-12-22T11:34:02;2.13;;;0.90;;
47920;SDS011;33686;48.770;9.186;2023-12-22T11:36:31;1.50;;;0.75;;
47920;SDS011;33686;48.770;9.186;2023-12-22T11:38:56;3.73;;;1.00;;
47920;SDS011;33686;48.770;9.186;2023-12-22T11:41:24;1.13;;;0.88;;
47920;SDS011;33686;48.770;9.186;2023-12-22T11:43:53;3.92;;;1.25;;
47920;SDS011;33686;48.770;9.186;2023-12-22T11:46:19;3.05;;;1.48;;
47920;SDS011;33686;48.770;9.186;2023-12-22T11:48:48;2.47;;;0.90;;
47920;SDS011;33686;48.770;9.186;2023-12-22T11:51:16;3.47;;;0.88;;
47920;SDS011;33686;48.770;9.186;2023-12-22T11:53:43;3.55;;;1.02;;
47920;SDS011;33686;48.770;9.186;2023-12-22T11:56:09;2.67;;;0.93;;
47920;SDS011;33686;48.770;9.186;2023-12-22T12:01:19;3.08;;;0.88;;
47920;SDS011;33686;48.770;9.186;2023-12-22T12:03:53;3.38;;;0.80;;
47920;SDS011;33686;48.770;9.186;2023-12-22T12:08:58;1.40;;;0.73;;
47920;SDS011;33686;48.770;9.186;2023-12-22T12:14:21;3.40;;;0.95;;
47920;SDS011;33686;48.770;9.186;2023-12-22T12:16:48;3.10;;;0.77;;
47920;SDS011;33686;48.770;9.186;2023-12-22T12:19:14;4.63;;;0.93;;
47920;SDS011;33686;48.770;9.186;2023-12-22T12:21:39;3.33;;;1.27;;
47920;SDS011;33686;48.770;9.186;2023-12-22T12:24:05;4.00;;;0.50;;
47920;SDS011;33686;48.770;9.186;2023-12-22T12:26:34;2.10;;;0.60;;
47920;SDS011;33686;48.770;9.186;2023-12-22T12:29:00;1.15;;;0.57;;
47920;SDS011;33686;48.770;9.186;2023-12-22T12:31:36;7.70;;;2.90;;
47920;SDS011;33686;48.770;9.186;2023-12-22T12:34:07;1.00;;;0.55;;
47920;SDS011;33686;48.770;9.186;2023-12-22T12:36:35;1.30;;;0.73;;
47920;SDS011;33686;48.770;9.186;2023-12-22T12:39:06;2.13;;;0.70;;
47920;SDS011;33686;48.770;9.186;2023-12-22T12:41:35;1.52;;;0.50;;
47920;SDS011;33686;48.770;9.186;2023-12-22T12:44:05;0.60;;;0.40;;
47920;SDS011;33686;48.770;9.186;2023-12-22T12:46:36;2.20;;;0.80;;
47920;SDS011;33686;48.770;9.186;2023-12-22T12:49:05;2.35;;;0.65;;
47920;SDS011;33686;48.770;9.186;2023-12-22T12:51:36;1.27;;;1.13;;
47920;SDS011;33686;48.770;9.186;2023-12-22T12:54:06;2.22;;;0.60;;
47920;SDS011;33686;48.770;9.186;2023-12-22T12:56:39;1.05;;;0.57;;
47920;SDS011;33686;48.770;9.186;2023-12-22T12:59:09;0.85;;;0.55;;
47920;SDS011;33686;48.770;9.186;2023-12-22T13:01:42;1.90;;;0.55;;
47920;SDS011;33686;48.770;9.186;2023-12-22T13:04:09;2.08;;;0.52;;
47920;SDS011;33686;48.770;9.186;2023-12-22T13:06:35;2.13;;;0.63;;
47920;SDS011;33686;48.770;9.186;2023-12-22T13:09:01;2.28;;;0.63;;
47920;SDS011;33686;48.770;9.186;2023-12-22T13:11:28;4.40;;;0.93;;
47920;SDS011;33686;48.770;9.186;2023-12-22T13:13:56;0.98;;;0.68;;
47920;SDS011;33686;48.770;9.186;2023-12-22T13:16:22;1.87;;;0.60;;
47920;SDS011;33686;48.770;9.186;2023-12-22T13:18:54;0.65;;;0.30;;
47920;SDS011;33686;48.770;9.186;2023-12-22T13:21:21;0.95;;;0.55;;
47920;SDS011;33686;48.770;9.186;2023-12-22T13:23:47;0.82;;;0.55;;
47920;SDS011;33686;48.770;9.186;2023-12-22T13:26:23;2.63;;;0.60;;
47920;SDS011;33686;48.770;9.186;2023-12-22T13:28:49;0.80;;;0.35;;
47920;SDS011;33686;48.770;9.186;2023-12-22T13:31:23;0.25;;;0.20;;
47920;SDS011;33686;48.770;9.186;2023-12-22T13:33:48;0.80;;;0.50;;
47920;SDS011;33686;48.770;9.186;2023-12-22T13:36:14;0.40;;;0.37;;
47920;SDS011;33686;48.770;9.186;2023-12-22T13:38:44;0.93;;;0.40;;
47920;SDS011;33686;48.770;9.186;2023-12-22T13:41:14;1.05;;;0.50;;
47920;SDS011;33686;48.770;9.186;2023-12-22T13:43:41;1.23;;;0.52;;
47920;SDS011;33686;48.770;9.186;2023-12-22T13:46:06;0.43;;;0.27;;
47920;SDS011;33686;48.770;9.186;2023-12-22T13:48:36;0.88;;;0.50;;
47920;SDS011;33686;48.770;9.186;2023-12-22T13:51:01;0.70;;;0.30;;
47920;SDS011;33686;48.770;9.186;2023-12-22T13:53:28;1.48;;;0.25;;
47920;SDS011;33686;48.770;9.186;2023-12-22T13:55:57;0.68;;;0.40;;
47920;SDS011;33686;48.770;9.186;2023-12-22T13:58:24;0.75;;;0.43;;
47920;SDS011;33686;48.770;9.186;2023-12-22T14:00:50;0.83;;;0.30;;
47920;SDS011;33686;48.770;9.186;2023-12-22T14:03:16;1.10;;;0.55;;
47920;SDS011;33686;48.770;9.186;2023-12-22T14:05:43;1.17;;;0.32;;
47920;SDS011;33686;48.770;9.186;2023-12-22T14:08:09;0.45;;;0.30;;
47920;SDS011;33686;48.770;9.186;2023-12-22T14:10:34;0.50;;;0.40;;
47920;SDS011;33686;48.770;9.186;2023-12-22T14:13:00;0.22;;;0.20;;
47920;SDS011;33686;48.770;9.186;2023-12-22T14:15:26;0.27;;;0.17;;
47920;SDS011;33686;48.770;9.186;2023-12-22T14:17:54;1.23;;;0.40;;
47920;SDS011;33686;48.770;9.186;2023-12-22T14:20:20;0.55;;;0.40;;
47920;SDS011;33686;48.770;9.186;2023-12-22T14:22:46;0.40;;;0.20;;
47920;SDS011;33686;48.770;9.186;2023-12-22T14:25:12;0.82;;;0.40;;
47920;SDS011;33686;48.770;9.186;2023-12-22T14:27:37;0.40;;;0.20;;
47920;SDS011;33686;48.770;9.186;2023-12-22T14:30:03;0.90;;;0.60;;
47920;SDS011;33686;48.770;9.186;2023-12-22T14:32:29;0.10;;;0.10;;
47920;SDS011;33686;48.770;9.186;2023-12-22T14:34:55;0.40;;;0.30;;
47920;SDS011;33686;48.770;9.186;2023-12-22T14:37:21;0.43;;;0.30;;
47920;SDS011;33686;48.770;9.186;2023-12-22T14:39:47;0.77;;;0.37;;
47920;SDS011;33686;48.770;9.186;2023-12-22T14:42:13;0.40;;;0.20;;
47920;SDS011;33686;48.770;9.186;2023-12-22T14:44:39;0.50;;;0.13;;
47920;SDS011;33686;48.770;9.186;2023-12-22T14:47:05;0.50;;;0.20;;
47920;SDS011;33686;48.770;9.186;2023-12-22T14:49:31;0.40;;;0.20;;
47920;SDS011;33686;48.770;9.186;2023-12-22T14:51:57;0.50;;;0.30;;
47920;SDS011;33686;48.770;9.186;2023-12-22T14:56:49;0.63;;;0.20;;
47920;SDS011;33686;48.770;9.186;2023-12-22T14:59:16;0.43;;;0.22;;
47920;SDS011;33686;48.770;9.186;2023-12-22T15:01:42;0.68;;;0.50;;
47920;SDS011;33686;48.770;9.186;2023-12-22T15:04:08;0.52;;;0.20;;
47920;SDS011;33686;48.770;9.186;2023-12-22T15:06:37;0.30;;;0.20;;
47920;SDS011;33686;48.770;9.186;2023-12-22T15:09:08;0.30;;;0.22;;
47920;SDS011;33686;48.770;9.186;2023-12-22T15:11:40;0.20;;;0.20;;
47920;SDS011;33686;48.770;9.186;2023-12-22T15:14:08;0.63;;;0.22;;
47920;SDS011;33686;48.770;9.186;2023-12-22T15:16:38;0.40;;;0.30;;
47920;SDS011;33686;48.770;9.186;2023-12-22T15:19:10;0.70;;;0.30;;
47920;SDS011;33686;48.770;9.186;2023-12-22T15:21:37;0.60;;;0.30;;
47920;SDS011;33686;48.770;9.186;2023-12-22T15:24:03;0.65;;;0.40;;
47920;SDS011;33686;48.770;9.186;2023-12-22T15:26:30;0.28;;;0.20;;
47920;SDS011;33686;48.770;9.186;2023-12-22T15:28:56;0.80;;;0.30;;
47920;SDS011;33686;48.770;9.186;2023-12-22T15:31:22;0.52;;;0.35;;
47920;SDS011;33686;48.770;9.186;2023-12-22T15:33:49;1.17;;;0.40;;
47920;SDS011;33686;48.770;9.186;2023-12-22T15:36:18;0.63;;;0.47;;
47920;SDS011;33686;48.770;9.186;2023-12-22T15:38:45;1.90;;;0.50;;
47920;SDS011;33686;48.770;9.186;2023-12-22T15:41:11;0.30;;;0.20;;
47920;SDS011;33686;48.770;9.186;2023-12-22T15:43:37;0.50;;;0.40;;
47920;SDS011;33686;48.770;9.186;2023-12-22T15:46:03;0.97;;;0.20;;
47920;SDS011;33686;48.770;9.186;2023-12-22T15:48:30;0.60;;;0.32;;
47920;SDS011;33686;48.770;9.186;2023-12-22T15:50:56;0.50;;;0.40;;
47920;SDS011;33686;48.770;9.186;2023-12-22T15:53:22;0.67;;;0.67;;
47920;SDS011;33686;48.770;9.186;2023-12-22T15:55:48;0.73;;;0.40;;
47920;SDS011;33686;48.770;9.186;2023-12-22T15:58:13;0.93;;;0.40;;
47920;SDS011;33686;48.770;9.186;2023-12-22T16:00:39;0.47;;;0.20;;
47920;SDS011;33686;48.770;9.186;2023-12-22T16:03:05;0.22;;;0.17;;
47920;SDS011;33686;48.770;9.186;2023-12-22T16:05:31;0.40;;;0.30;;
47920;SDS011;33686;48.770;9.186;2023-12-22T16:07:57;1.10;;;0.40;;
47920;SDS011;33686;48.770;9.186;2023-12-22T16:10:25;1.65;;;0.43;;
47920;SDS011;33686;48.770;9.186;2023-12-22T16:12:53;0.45;;;0.20;;
47920;SDS011;33686;48.770;9.186;2023-12-22T16:15:19;0.23;;;0.20;;
47920;SDS011;33686;48.770;9.186;2023-12-22T16:17:44;2.30;;;0.50;;
47920;SDS011;33686;48.770;9.186;2023-12-22T16:20:10;1.53;;;0.20;;
47920;SDS011;33686;48.770;9.186;2023-12-22T16:22:39;1.85;;;0.20;;
47920;SDS011;33686;48.770;9.186;2023-12-22T16:25:05;2.27;;;0.23;;
47920;SDS011;33686;48.770;9.186;2023-12-22T16:27:31;0.50;;;0.20;;
47920;SDS011;33686;48.770;9.186;2023-12-22T16:29:57;0.50;;;0.27;;
47920;SDS011;33686;48.770;9.186;2023-12-22T16:32:22;0.20;;;0.17;;
47920;SDS011;33686;48.770;9.186;2023-12-22T16:34:48;0.43;;;0.30;;
47920;SDS011;33686;48.770;9.186;2023-12-22T16:37:14;0.73;;;0.20;;
47920;SDS011;33686;48.770;9.186;2023-12-22T16:42:13;0.70;;;0.20;;
47920;SDS011;33686;48.770;9.186;2023-12-22T16:44:40;0.77;;;0.40;;
47920;SDS011;33686;48.770;9.186;2023-12-22T16:47:06;1.60;;;0.20;;
47920;SDS011;33686;48.770;9.186;2023-12-22T16:49:31;1.77;;;0.70;;
47920;SDS011;33686;48.770;9.186;2023-12-22T16:51:57;1.90;;;0.97;;
47920;SDS011;33686;48.770;9.186;2023-12-22T16:54:22;0.17;;;0.10;;
47920;SDS011;33686;48.770;9.186;2023-12-22T16:56:48;0.30;;;0.23;;
47920;SDS011;33686;48.770;9.186;2023-12-22T16:59:13;1.87;;;0.77;;
47920;SDS011;33686;48.770;9.186;2023-12-22T17:01:39;1.37;;;0.80;;
47920;SDS011;33686;48.770;9.186;2023-12-22T17:04:05;1.23;;;0.47;;
47920;SDS011;33686;48.770;9.186;2023-12-22T17:06:31;0.63;;;0.30;;
47920;SDS011;33686;48.770;9.186;2023-12-22T17:08:56;0.67;;;0.40;;
47920;SDS011;33686;48.770;9.186;2023-12-22T17:11:22;0.43;;;0.23;;
47920;SDS011;33686;48.770;9.186;2023-12-22T17:13:47;0.60;;;0.40;;
47920;SDS011;33686;48.770;9.186;2023-12-22T17:16:13;0.63;;;0.30;;
47920;SDS011;33686;48.770;9.186;2023-12-22T17:18:39;0.65;;;0.38;;
47920;SDS011;33686;48.770;9.186;2023-12-22T17:21:06;0.90;;;0.23;;
47920;SDS011;33686;48.770;9.186;2023-12-22T17:23:35;0.50;;;0.32;;
47920;SDS011;33686;48.770;9.186;2023-12-22T17:26:01;0.97;;;0.37;;
47920;SDS011;33686;48.770;9.186;2023-12-22T17:28:27;1.47;;;0.40;;
47920;SDS011;33686;48.770;9.186;2023-12-22T17:30:52;0.87;;;0.23;;
47920;SDS011;33686;48.770;9.186;2023-12-22T17:33:18;0.93;;;0.27;;
47920;SDS011;33686;48.770;9.186;2023-12-22T17:35:43;0.50;;;0.30;;
47920;SDS011;33686;48.770;9.186;2023-12-22T17:38:09;0.60;;;0.37;;
47920;SDS011;33686;48.770;9.186;2023-12-22T17:40:35;0.40;;;0.30;;
47920;SDS011;33686;48.770;9.186;2023-12-22T17:43:00;1.37;;;0.50;;
47920;SDS011;33686;48.770;9.186;2023-12-22T17:45:26;0.47;;;0.30;;
47920;SDS011;33686;48.770;9.186;2023-12-22T17:47:52;0.70;;;0.60;;
47920;SDS011;33686;48.770;9.186;2023-12-22T17:50:17;0.50;;;0.30;;
47920;SDS011;33686;48.770;9.186;2023-12-22T17:52:43;1.23;;;0.40;;
47920;SDS011;33686;48.770;9.186;2023-12-22T17:55:09;0.47;;;0.30;;
47920;SDS011;33686;48.770;9.186;2023-12-22T17:57:34;0.87;;;0.40;;
47920;SDS011;33686;48.770;9.186;2023-12-22T18:00:00;0.83;;;0.53;;
47920;SDS011;33686;48.770;9.186;2023-12-22T18:02:26;0.50;;;0.30;;
47920;SDS011;33686;48.770;9.186;2023-12-22T18:04:51;0.47;;;0.30;;
47920;SDS011;33686;48.770;9.186;2023-12-22T18:07:17;1.30;;;0.80;;
47920;SDS011;33686;48.770;9.186;2023-12-22T18:09:43;0.68;;;0.40;;
47920;SDS011;33686;48.770;9.186;2023-12-22T18:12:09;0.63;;;0.43;;
47920;SDS011;33686;48.770;9.186;2023-12-22T18:14:34;1.13;;;0.37;;
47920;SDS011;33686;48.770;9.186;2023-12-22T18:17:00;0.80;;;0.30;;
47920;SDS011;33686;48.770;9.186;2023-12-22T18:19:26;3.20;;;0.40;;
47920;SDS011;33686;48.770;9.186;2023-12-22T18:21:52;0.40;;;0.28;;
47920;SDS011;33686;48.770;9.186;2023-12-22T18:24:17;1.37;;;0.30;;
47920;SDS011;33686;48.770;9.186;2023-12-22T18:26:43;1.07;;;0.50;;
47920;SDS011;33686;48.770;9.186;2023-12-22T18:31:37;1.52;;;0.50;;
47920;SDS011;33686;48.770;9.186;2023-12-22T18:34:03;0.80;;;0.37;;
47920;SDS011;33686;48.770;9.186;2023-12-22T18:36:29;1.23;;;0.60;;
47920;SDS011;33686;48.770;9.186;2023-12-22T18:38:55;0.82;;;0.40;;
47920;SDS011;33686;48.770;9.186;2023-12-22T18:41:21;0.30;;;0.30;;
47920;SDS011;33686;48.770;9.186;2023-12-22T18:43:46;0.77;;;0.40;;
47920;SDS011;33686;48.770;9.186;2023-12-22T18:46:12;1.50;;;0.60;;
47920;SDS011;33686;48.770;9.186;2023-12-22T18:48:41;2.47;;;0.60;;
47920;SDS011;33686;48.770;9.186;2023-12-22T18:51:11;0.65;;;0.55;;
47920;SDS011;33686;48.770;9.186;2023-12-22T18:53:40;0.52;;;0.30;;
47920;SDS011;33686;48.770;9.186;2023-12-22T18:56:09;0.60;;;0.45;;
47920;SDS011;33686;48.770;9.186;2023-12-22T18:58:35;0.55;;;0.30;;
47920;SDS011;33686;48.770;9.186;2023-12-22T19:01:02;0.40;;;0.30;;
47920;SDS011;33686;48.770;9.186;2023-12-22T19:03:28;0.55;;;0.30;;
47920;SDS011;33686;48.770;9.186;2023-12-22T19:05:53;0.30;;;0.20;;
47920;SDS011;33686;48.770;9.186;2023-12-22T19:08:19;1.10;;;0.50;;
47920;SDS011;33686;48.770;9.186;2023-12-22T19:10:45;0.50;;;0.37;;
47920;SDS011;33686;48.770;9.186;2023-12-22T19:13:11;1.70;;;0.47;;
47920;SDS011;33686;48.770;9.186;2023-12-22T19:15:37;1.83;;;0.45;;
47920;SDS011;33686;48.770;9.186;2023-12-22T19:18:03;1.30;;;0.70;;
47920;SDS011;33686;48.770;9.186;2023-12-22T19:20:29;1.02;;;0.70;;
47920;SDS011;33686;48.770;9.186;2023-12-22T19:22:55;1.03;;;0.50;;
47920;SDS011;33686;48.770;9.186;2023-12-22T19:25:20;1.27;;;0.30;;
47920;SDS011;33686;48.770;9.186;2023-12-22T19:27:46;1.27;;;0.50;;
47920;SDS011;33686;48.770;9.186;2023-12-22T19:30:13;1.00;;;0.50;;
47920;SDS011;33686;48.770;9.186;2023-12-22T19:32:39;0.90;;;0.50;;
47920;SDS011;33686;48.770;9.186;2023-12-22T19:35:04;0.60;;;0.40;;
47920;SDS011;33686;48.770;9.186;2023-12-22T19:37:30;1.30;;;0.67;;
47920;SDS011;33686;48.770;9.186;2023-12-22T19:39:56;0.60;;;0.40;;
47920;SDS011;33686;48.770;9.186;2023-12-22T19:42:21;1.00;;;0.43;;
47920;SDS011;33686;48.770;9.186;2023-12-22T19:44:47;0.70;;;0.40;;
47920;SDS011;33686;48.770;9.186;2023-12-22T19:47:13;1.88;;;0.30;;
47920;SDS011;33686;48.770;9.186;2023-12-22T19:49:39;1.43;;;0.30;;
47920;SDS011;33686;48.770;9.186;2023-12-22T19:52:04;0.63;;;0.30;;
47920;SDS011;33686;48.770;9.186;2023-12-22T19:54:30;0.70;;;0.30;;
47920;SDS011;33686;48.770;9.186;2023-12-22T19:56:56;0.57;;;0.40;;
47920;SDS011;33686;48.770;9.186;2023-12-22T19:59:21;1.93;;;0.63;;
47920;SDS011;33686;48.770;9.186;2023-12-22T20:01:47;1.10;;;0.50;;
47920;SDS011;33686;48.770;9.186;2023-12-22T20:04:13;0.68;;;0.50;;
47920;SDS011;33686;48.770;9.186;2023-12-22T20:06:38;1.37;;;0.93;;
47920;SDS011;33686;48.770;9.186;2023-12-22T20:09:07;2.00;;;0.80;;
47920;SDS011;33686;48.770;9.186;2023-12-22T20:11:33;0.93;;;0.57;;
47920;SDS011;33686;48.770;9.186;2023-12-22T20:13:59;2.00;;;0.50;;
47920;SDS011;33686;48.770;9.186;2023-12-22T20:16:24;0.80;;;0.50;;
47920;SDS011;33686;48.770;9.186;2023-12-22T20:18:51;1.05;;;0.60;;
47920;SDS011;33686;48.770;9.186;2023-12-22T20:21:17;0.98;;;0.40;;
47920;SDS011;33686;48.770;9.186;2023-12-22T20:23:42;1.20;;;0.30;;
47920;SDS011;33686;48.770;9.186;2023-12-22T20:26:08;1.05;;;0.95;;
47920;SDS011;33686;48.770;9.186;2023-12-22T20:28:33;3.47;;;0.87;;
47920;SDS011;33686;48.770;9.186;2023-12-22T20:31:01;0.65;;;0.40;;
47920;SDS011;33686;48.770;9.186;2023-12-22T20:33:26;2.37;;;0.60;;
47920;SDS011;33686;48.770;9.186;2023-12-22T20:35:52;0.55;;;0.30;;
47920;SDS011;33686;48.770;9.186;2023-12-22T20:38:18;2.57;;;0.63;;
47920;SDS011;33686;48.770;9.186;2023-12-22T20:40:43;1.30;;;0.60;;
47920;SDS011;33686;48.770;9.186;2023-12-22T20:43:09;2.72;;;0.82;;
47920;SDS011;33686;48.770;9.186;2023-12-22T20:45:35;2.77;;;0.40;;
47920;SDS011;33686;48.770;9.186;2023-12-22T20:48:00;1.13;;;0.47;;
47920;SDS011;33686;48.770;9.186;2023-12-22T20:50:26;1.73;;;0.57;;
47920;SDS011;33686;48.770;9.186;2023-12-22T20:52:52;1.77;;;0.40;;
47920;SDS011;33686;48.770;9.186;2023-12-22T20:55:19;1.55;;;0.50;;
47920;SDS011;33686;48.770;9.186;2023-12-22T20:57:48;0.45;;;0.30;;
47920;SDS011;33686;48.770;9.186;2023-12-22T21:00:14;1.90;;;0.52;;
47920;SDS011;33686;48.770;9.186;2023-12-22T21:02:40;1.95;;;0.60;;
47920;SDS011;33686;48.770;9.186;2023-12-22T21:05:06;3.37;;;0.40;;
47920;SDS011;33686;48.770;9.186;2023-12-22T21:07:32;1.42;;;0.68;;
47920;SDS011;33686;48.770;9.186;2023-12-22T21:09:58;1.70;;;0.60;;
47920;SDS011;33686;48.770;9.186;2023-12-22T21:12:24;0.93;;;0.57;;
47920;SDS011;33686;48.770;9.186;2023-12-22T21:14:49;1.37;;;0.77;;
47920;SDS011;33686;48.770;9.186;2023-12-22T21:17:17;1.35;;;0.55;;